createdAt,value
2018-11-07T00:02:22.046Z,91.00
2018-11-07T00:04:53.735Z,91.10
2018-11-07T00:07:23.905Z,91.70
2018-11-07T00:09:55.515Z,91.00
2018-11-07T00:12:24.912Z,91.90
2018-11-07T00:14:54.926Z,91.30
2018-11-07T00:17:24.467Z,91.30
2018-11-07T00:19:56.569Z,91.30
2018-11-07T00:22:26.041Z,91.40
2018-11-07T00:24:57.477Z,91.50
2018-11-07T00:27:28.421Z,91.00
2018-11-07T00:29:59.011Z,91.40
2018-11-07T00:32:29.114Z,91.40
2018-11-07T00:35:01.674Z,91.50
2018-11-07T00:37:33.540Z,91.60
2018-11-07T00:40:03.763Z,91.40
2018-11-07T00:42:33.850Z,91.90
2018-11-07T00:45:15.043Z,91.80
2018-11-07T00:47:50.408Z,92.60
2018-11-07T00:50:21.660Z,91.90
2018-11-07T00:52:58.478Z,92.60
2018-11-07T00:55:33.709Z,92.00
2018-11-07T00:58:07.322Z,92.20
2018-11-07T01:00:49.974Z,92.10
2018-11-07T01:03:26.787Z,92.20
2018-11-07T01:06:10.039Z,92.20
2018-11-07T01:08:47.914Z,92.40
2018-11-07T01:11:29.695Z,92.20
2018-11-07T01:14:02.357Z,92.30
2018-11-07T01:16:45.484Z,92.40
2018-11-07T01:19:21.783Z,92.20
2018-11-07T01:21:57.870Z,92.10
2018-11-07T01:24:33.706Z,92.30
2018-11-07T01:27:08.791Z,92.80
2018-11-07T01:29:47.432Z,92.40
2018-11-07T01:40:11.554Z,92.80
2018-11-07T01:42:47.500Z,92.70
2018-11-07T01:47:58.471Z,93.00
2018-11-07T01:53:10.920Z,93.50
2018-11-07T01:55:50.664Z,93.60
2018-11-07T01:58:22.043Z,94.00
2018-11-07T02:00:54.315Z,94.10
2018-11-07T02:03:29.539Z,94.70
2018-11-07T02:06:13.072Z,93.50
2018-11-07T02:08:50.135Z,93.50
2018-11-07T02:11:23.188Z,93.70
2018-11-07T02:14:01.403Z,94.10
2018-11-07T02:16:40.552Z,94.10
2018-11-07T02:19:21.332Z,94.30
2018-11-07T02:21:59.768Z,94.40
2018-11-07T02:24:35.338Z,94.50
2018-11-07T02:27:13.692Z,95.00
2018-11-07T02:29:50.355Z,95.20
2018-11-07T02:32:21.189Z,95.70
2018-11-07T02:37:31.833Z,95.90
2018-11-07T02:40:09.422Z,95.90
2018-11-07T02:42:48.561Z,95.90
2018-11-07T02:45:35.302Z,95.60
2018-11-07T02:48:13.779Z,95.00
2018-11-07T02:50:44.031Z,94.90
2018-11-07T02:55:50.877Z,94.80
2018-11-07T02:58:22.347Z,95.10
2018-11-07T03:00:52.639Z,95.20
2018-11-07T03:03:28.988Z,95.20
2018-11-07T03:08:35.296Z,95.30
2018-11-07T03:11:11.079Z,95.60
2018-11-07T03:13:42.820Z,95.60
2018-11-07T03:16:18.193Z,95.80
2018-11-07T03:18:50.403Z,95.90
2018-11-07T03:21:23.347Z,95.90
2018-11-07T03:23:58.059Z,95.80
2018-11-07T03:29:10.064Z,95.30
2018-11-07T03:31:40.970Z,95.30
2018-11-07T03:34:16.236Z,95.20
2018-11-07T03:36:52.877Z,96.10
2018-11-07T03:39:23.704Z,95.30
2018-11-07T03:41:58.760Z,95.40
2018-11-07T03:44:32.228Z,95.70
2018-11-07T03:47:08.520Z,95.90
2018-11-07T03:49:41.830Z,95.90
2018-11-07T03:52:13.868Z,95.90
2018-11-07T03:54:52.019Z,95.90
2018-11-07T03:57:23.071Z,96.00
2018-11-07T03:59:55.127Z,95.90
2018-11-07T04:02:30.887Z,95.80
2018-11-07T04:05:04.339Z,95.80
2018-11-07T04:10:22.622Z,96.10
2018-11-07T04:12:54.349Z,96.20
2018-11-07T04:15:27.988Z,96.20
2018-11-07T04:18:00.073Z,96.30
2018-11-07T04:20:34.806Z,96.50
2018-11-07T04:23:11.354Z,96.60
2018-11-07T04:25:50.252Z,96.70
2018-11-07T04:28:23.275Z,96.80
2018-11-07T04:30:54.815Z,96.70
2018-11-07T04:33:33.962Z,97.10
2018-11-07T04:36:10.635Z,96.60
2018-11-07T04:43:57.486Z,96.80
2018-11-07T04:46:31.243Z,97.10
2018-11-07T04:49:08.284Z,97.00
2018-11-07T04:51:42.071Z,96.90
2018-11-07T04:54:17.006Z,96.50
2018-11-07T04:56:49.467Z,96.50
2018-11-07T04:59:21.222Z,96.40
2018-11-07T05:01:56.148Z,96.50
2018-11-07T05:04:29.314Z,96.70
2018-11-07T05:07:03.946Z,97.00
2018-11-07T05:09:36.854Z,96.60
2018-11-07T05:12:08.068Z,96.70
2018-11-07T05:14:41.752Z,96.70
2018-11-07T05:17:12.090Z,96.70
2018-11-07T05:19:42.607Z,96.80
2018-11-07T05:22:12.623Z,97.70
2018-11-07T05:24:43.213Z,96.70
2018-11-07T05:27:26.132Z,96.60
2018-11-07T05:30:02.959Z,96.90
2018-11-07T05:32:33.960Z,96.90
2018-11-07T05:35:12.007Z,97.30
2018-11-07T05:37:47.534Z,97.30
2018-11-07T05:40:20.906Z,98.50
2018-11-07T05:42:53.347Z,97.50
2018-11-07T05:48:05.913Z,98.00
2018-11-07T05:50:36.378Z,98.00
2018-11-07T05:53:09.715Z,97.60
2018-11-07T05:55:41.147Z,97.50
2018-11-07T05:58:11.653Z,97.90
2018-11-07T06:00:46.711Z,98.20
2018-11-07T06:03:17.315Z,98.20
2018-11-07T06:05:48.983Z,98.50
2018-11-07T06:08:26.892Z,98.70
2018-11-07T06:11:05.118Z,98.60
2018-11-07T06:13:40.854Z,98.30
2018-11-07T06:19:05.199Z,97.90
2018-11-07T06:21:45.418Z,97.60
2018-11-07T06:24:24.766Z,97.60
2018-11-07T06:26:58.331Z,97.70
2018-11-07T06:29:28.061Z,97.60
2018-11-07T06:32:01.814Z,97.60
2018-11-07T06:37:17.308Z,97.40
2018-11-07T06:39:46.621Z,97.50
2018-11-07T06:42:17.929Z,97.60
2018-11-07T06:44:48.874Z,97.60
2018-11-07T06:47:23.529Z,98.20
2018-11-07T06:49:54.006Z,98.00
2018-11-07T06:52:33.224Z,98.20
2018-11-07T06:55:02.743Z,98.40
2018-11-07T06:57:33.639Z,98.50
2018-11-07T07:00:24.547Z,98.50
2018-11-07T07:03:01.239Z,98.30
2018-11-07T07:05:33.119Z,98.30
2018-11-07T07:08:03.776Z,98.30
2018-11-07T07:10:56.924Z,98.30
2018-11-07T07:13:28.969Z,98.30
2018-11-07T07:15:58.594Z,98.10
2018-11-07T07:18:31.754Z,98.20
2018-11-07T07:21:06.363Z,98.10
2018-11-07T07:23:37.104Z,98.80
2018-11-07T07:26:20.542Z,97.80
2018-11-07T07:34:13.863Z,98.20
2018-11-07T07:36:50.225Z,97.50
2018-11-07T07:39:30.200Z,97.10
2018-11-07T07:42:04.382Z,97.30
2018-11-07T07:44:41.168Z,97.30
2018-11-07T07:47:24.618Z,97.30
2018-11-07T07:50:02.912Z,97.40
2018-11-07T07:52:41.026Z,96.30
2018-11-07T07:55:13.318Z,97.10
2018-11-07T07:57:47.440Z,97.10
2018-11-07T08:00:19.615Z,97.10
2018-11-07T08:02:54.463Z,97.30
2018-11-07T08:05:27.705Z,97.10
2018-11-07T08:08:00.170Z,97.00
2018-11-07T08:10:42.833Z,96.90
2018-11-07T08:13:18.124Z,96.40
2018-11-07T08:15:52.212Z,96.50
2018-11-07T08:18:22.017Z,96.50
2018-11-07T08:20:52.457Z,96.50
2018-11-07T08:23:26.757Z,96.70
2018-11-07T08:25:58.143Z,96.00
2018-11-07T08:31:44.452Z,95.40
2018-11-07T08:34:31.881Z,95.30
2018-11-07T08:37:21.668Z,95.20
2018-11-07T08:42:48.802Z,95.40
2018-11-07T08:45:26.477Z,95.00
2018-11-07T08:48:00.410Z,95.00
2018-11-07T08:53:10.633Z,94.90
2018-11-07T08:55:47.534Z,94.40
2018-11-07T08:58:23.350Z,95.70
2018-11-07T09:00:59.696Z,94.40
2018-11-07T09:03:30.559Z,94.10
2018-11-07T09:08:44.355Z,94.30
2018-11-07T09:11:15.774Z,94.80
2018-11-07T09:16:30.825Z,94.50
2018-11-07T09:19:07.659Z,94.40
2018-11-07T09:21:44.747Z,94.40
2018-11-07T09:24:16.376Z,94.10
2018-11-07T09:26:48.371Z,93.10
2018-11-07T09:29:19.144Z,92.90
2018-11-07T09:31:52.831Z,92.80
2018-11-07T09:34:29.871Z,92.60
2018-11-07T09:37:03.896Z,92.30
2018-11-07T09:39:37.200Z,92.00
2018-11-07T09:42:09.332Z,91.80
2018-11-07T09:44:40.640Z,91.70
2018-11-07T09:47:19.588Z,91.40
2018-11-07T09:49:55.332Z,91.00
2018-11-07T09:52:29.871Z,91.30
2018-11-07T09:55:01.878Z,90.70
2018-11-07T09:57:45.752Z,88.40
2018-11-07T10:00:21.112Z,88.00
2018-11-07T10:03:01.028Z,83.70
2018-11-07T10:05:35.658Z,78.80
2018-11-07T10:08:11.316Z,76.60
2018-11-07T10:10:45.447Z,73.20
2018-11-07T10:13:24.293Z,72.20
2018-11-07T10:16:01.132Z,68.80
2018-11-07T10:18:37.581Z,66.80
2018-11-07T10:23:55.588Z,63.60
2018-11-07T10:29:12.911Z,63.80
2018-11-07T10:34:38.208Z,63.70
2018-11-07T10:37:13.859Z,63.10
2018-11-07T10:45:40.251Z,60.60
2018-11-07T10:48:30.113Z,59.50
2018-11-07T10:53:52.826Z,62.20
2018-11-07T11:04:42.312Z,60.20
2018-11-07T11:18:25.622Z,61.10
2018-11-07T11:20:57.139Z,59.70
2018-11-07T11:23:28.485Z,59.20
2018-11-07T11:25:57.949Z,59.10
2018-11-07T11:28:27.344Z,59.00
2018-11-07T11:30:57.212Z,61.50
2018-11-07T11:33:26.984Z,63.00
2018-11-07T11:35:56.596Z,61.60
2018-11-07T11:38:27.245Z,60.70
2018-11-07T11:40:59.726Z,62.90
2018-11-07T11:43:29.212Z,65.90
2018-11-07T11:46:02.884Z,67.50
2018-11-07T11:48:34.911Z,69.40
2018-11-07T11:51:05.040Z,71.00
2018-11-07T11:53:34.919Z,72.30
2018-11-07T11:56:06.326Z,72.90
2018-11-07T11:58:36.994Z,73.30
2018-11-07T12:01:07.127Z,73.60
2018-11-07T12:03:37.030Z,74.00
2018-11-07T12:06:07.130Z,74.10
2018-11-07T12:08:40.799Z,73.90
2018-11-07T12:11:10.859Z,75.00
2018-11-07T12:13:40.079Z,76.90
2018-11-07T12:16:09.396Z,75.60
2018-11-07T12:18:39.449Z,74.70
2018-11-07T12:21:09.165Z,75.80
2018-11-07T12:23:39.609Z,75.00
2018-11-07T12:26:14.298Z,73.30
2018-11-07T12:28:43.798Z,70.90
2018-11-07T12:31:13.488Z,66.40
2018-11-07T12:33:46.862Z,64.90
2018-11-07T12:36:21.668Z,61.70
2018-11-07T12:38:53.197Z,59.00
2018-11-07T12:44:02.266Z,55.90
2018-11-07T12:46:33.044Z,56.30
2018-11-07T12:49:07.509Z,56.90
2018-11-07T12:54:14.923Z,64.90
2018-11-07T12:56:47.066Z,67.40
2018-11-07T12:59:20.136Z,69.10
2018-11-07T13:01:52.499Z,70.30
2018-11-07T13:04:29.971Z,72.20
2018-11-07T13:07:05.056Z,74.10
2018-11-07T13:09:40.193Z,73.40
2018-11-07T13:12:14.380Z,74.20
2018-11-07T13:14:56.352Z,74.80
2018-11-07T13:17:26.135Z,74.80
2018-11-07T13:19:56.853Z,76.10
2018-11-07T13:25:10.410Z,76.80
2018-11-07T13:27:40.825Z,77.10
2018-11-07T13:30:17.523Z,77.70
2018-11-07T13:32:48.908Z,79.50
2018-11-07T13:35:21.671Z,79.50
2018-11-07T13:37:54.142Z,80.90
2018-11-07T13:40:34.470Z,80.60
2018-11-07T13:43:11.741Z,81.10
2018-11-07T13:45:46.807Z,81.70
2018-11-07T13:48:22.126Z,81.30
2018-11-07T13:51:03.955Z,81.00
2018-11-07T13:56:17.624Z,81.50
2018-11-07T13:59:00.534Z,82.20
2018-11-07T14:01:38.616Z,82.80
2018-11-07T14:04:10.678Z,83.30
2018-11-07T14:06:43.935Z,82.90
2018-11-07T14:11:50.701Z,83.00
2018-11-07T14:14:26.470Z,83.00
2018-11-07T14:16:57.739Z,83.30
2018-11-07T14:19:42.689Z,82.30
2018-11-07T14:22:19.897Z,84.00
2018-11-07T14:25:07.194Z,84.00
2018-11-07T14:30:35.061Z,84.00
2018-11-07T14:33:12.770Z,83.90
2018-11-07T14:35:52.543Z,84.10
2018-11-07T14:38:35.781Z,84.30
2018-11-07T14:44:00.422Z,85.50
2018-11-07T14:49:15.675Z,86.70
2018-11-07T14:51:53.361Z,86.60
2018-11-07T14:54:35.855Z,86.80
2018-11-07T14:57:06.799Z,87.20
2018-11-07T14:59:41.311Z,87.20
2018-11-07T15:02:17.957Z,87.30
2018-11-07T15:07:38.083Z,88.30
2018-11-07T15:10:24.574Z,87.50
2018-11-07T15:13:06.552Z,88.60
2018-11-07T15:15:40.912Z,89.80
2018-11-07T15:18:23.950Z,87.40
2018-11-07T15:20:57.044Z,89.10
2018-11-07T15:24:11.208Z,88.60
2018-11-07T15:26:47.722Z,90.10
2018-11-07T15:29:22.367Z,90.30
2018-11-07T15:31:57.065Z,90.20
2018-11-07T15:37:35.812Z,90.30
2018-11-07T16:00:23.400Z,92.20
2018-11-07T16:05:33.886Z,92.50
2018-11-07T16:08:04.582Z,92.40
2018-11-07T16:16:20.330Z,93.00
2018-11-07T16:19:00.247Z,93.20
2018-11-07T16:21:30.684Z,92.50
2018-11-07T16:24:03.054Z,93.50
2018-11-07T16:26:33.085Z,92.90
2018-11-07T16:29:02.971Z,92.80
2018-11-07T16:31:34.126Z,92.80
2018-11-07T16:34:03.581Z,93.10
2018-11-07T16:36:34.849Z,93.40
2018-11-07T16:39:08.776Z,93.40
2018-11-07T16:41:39.199Z,93.60
2018-11-07T16:44:10.364Z,94.80
2018-11-07T16:46:48.005Z,93.70
2018-11-07T16:49:27.574Z,93.80
2018-11-07T16:52:02.240Z,93.70
2018-11-07T16:54:32.606Z,93.50
2018-11-07T16:57:03.766Z,93.70
2018-11-07T16:59:34.680Z,93.70
2018-11-07T17:02:05.072Z,93.80
2018-11-07T17:04:42.040Z,94.00
2018-11-07T17:07:11.350Z,94.00
2018-11-07T17:09:53.292Z,94.10
2018-11-07T17:12:26.163Z,94.20
2018-11-07T17:14:56.200Z,93.70
2018-11-07T17:20:08.879Z,94.50
2018-11-07T17:22:39.881Z,93.80
2018-11-07T17:25:14.059Z,94.40
2018-11-07T17:27:44.233Z,95.30
2018-11-07T17:30:19.772Z,94.40
2018-11-07T17:32:52.079Z,94.40
2018-11-07T17:35:28.192Z,95.00
2018-11-07T17:37:58.389Z,94.70
2018-11-07T17:40:34.081Z,94.80
2018-11-07T17:43:08.906Z,95.00
2018-11-07T17:45:42.887Z,95.50
2018-11-07T17:48:13.822Z,94.90
2018-11-07T17:50:48.450Z,94.80
2018-11-07T17:53:21.938Z,94.80
2018-11-07T17:55:52.486Z,94.90
2018-11-07T17:58:27.814Z,95.00
2018-11-07T18:01:00.627Z,95.00
2018-11-07T18:03:31.330Z,94.80
2018-11-07T18:06:06.674Z,95.40
2018-11-07T18:08:44.891Z,95.20
2018-11-07T18:11:27.288Z,94.90
2018-11-07T18:13:59.512Z,95.10
2018-11-07T18:16:30.923Z,94.90
2018-11-07T18:19:09.380Z,95.00
2018-11-07T18:21:43.997Z,94.50
2018-11-07T18:24:18.246Z,94.80
2018-11-07T18:26:51.708Z,94.90
2018-11-07T18:29:22.478Z,95.20
2018-11-07T18:32:01.111Z,94.90
2018-11-07T18:34:32.587Z,95.10
2018-11-07T18:37:03.821Z,95.30
2018-11-07T18:39:43.419Z,95.30
2018-11-07T18:42:20.500Z,95.30
2018-11-07T18:45:50.074Z,95.30
2018-11-07T18:48:24.251Z,95.30
2018-11-07T18:54:01.011Z,95.30
2018-11-07T18:59:25.116Z,95.40
2018-11-07T19:02:18.558Z,95.30
2018-11-07T19:04:52.406Z,95.40
2018-11-07T19:07:25.107Z,95.60
2018-11-07T19:09:57.794Z,95.50
2018-11-07T19:12:32.880Z,95.70
2018-11-07T19:15:04.584Z,95.90
2018-11-07T19:17:38.273Z,96.30
2018-11-07T19:20:08.438Z,97.20
2018-11-07T19:22:42.033Z,97.00
2018-11-07T19:25:18.023Z,97.60
2018-11-07T19:27:48.676Z,97.60
2018-11-07T19:30:24.894Z,98.30
2018-11-07T19:32:55.175Z,97.70
2018-11-07T19:35:25.654Z,99.20
2018-11-07T19:38:02.195Z,98.40
2018-11-07T19:40:32.055Z,98.00
2018-11-07T19:43:06.606Z,96.50
2018-11-07T19:45:40.101Z,98.50
2018-11-07T19:48:14.484Z,98.40
2018-11-07T19:50:45.891Z,98.30
2018-11-07T19:53:18.880Z,98.30
2018-11-07T19:55:51.997Z,99.50
2018-11-07T20:08:34.388Z,98.40
2018-11-07T20:11:16.101Z,98.60
2018-11-07T20:13:51.115Z,98.90
2018-11-07T20:19:57.095Z,98.70
2018-11-07T20:22:36.739Z,98.40
2018-11-07T20:25:12.096Z,97.90
2018-11-07T20:27:46.929Z,98.00
2018-11-07T20:30:28.932Z,98.10
2018-11-07T20:33:02.842Z,98.30
2018-11-07T20:35:37.483Z,99.20
2018-11-07T20:38:16.284Z,98.80
2018-11-07T20:40:47.465Z,98.30
2018-11-07T20:43:19.677Z,98.60
2018-11-07T20:45:50.401Z,98.30
2018-11-07T20:48:21.601Z,98.50
2018-11-07T20:50:50.843Z,99.10
2018-11-07T20:53:31.977Z,99.90
2018-11-07T20:56:03.479Z,99.60
2018-11-07T20:58:40.654Z,99.00
2018-11-07T21:01:10.675Z,99.00
2018-11-07T21:03:46.736Z,99.30
2018-11-07T21:06:21.022Z,99.20
2018-11-07T21:17:04.776Z,99.30
2018-11-07T21:20:01.542Z,98.90
2018-11-07T21:25:32.063Z,98.70
2018-11-07T22:09:18.128Z,98.80
2018-11-07T22:15:12.376Z,98.80
2018-11-07T22:32:12.635Z,99.10
2018-11-07T22:35:03.946Z,99.30
2018-11-07T22:37:33.396Z,99.30
2018-11-07T22:40:03.048Z,99.90
2018-11-07T22:42:33.695Z,99.60
2018-11-07T22:45:19.093Z,99.30
2018-11-07T22:47:51.138Z,99.70
2018-11-07T22:50:23.719Z,99.60
2018-11-07T22:52:57.835Z,99.70
2018-11-07T22:59:06.117Z,99.30
2018-11-07T23:01:41.617Z,99.20
2018-11-07T23:04:13.525Z,99.50
2018-11-07T23:07:06.077Z,99.90
2018-11-07T23:09:55.335Z,99.90
2018-11-07T23:12:26.375Z,99.90
2018-11-07T23:14:57.365Z,99.90
2018-11-07T23:17:29.812Z,99.90
2018-11-07T23:22:57.307Z,99.90
2018-11-07T23:28:20.607Z,99.90
2018-11-07T23:33:50.573Z,99.90
2018-11-07T23:36:30.349Z,99.90
2018-11-07T23:39:09.725Z,99.90
2018-11-07T23:53:34.304Z,99.90
